sensor_id;sensor_type;location;lat;lon;timestamp;temperature;humidity
55054;DHT22;40954;45.668;18.980;2023-03-13T15:55:28;512.60;1100.80
55054;DHT22;40954;45.668;18.980;2023-03-13T16:51:47;409.90;1459.20
55054;DHT22;40954;45.668;18.980;2023-03-13T16:54:13;409.70;1459.20
55054;DHT22;40954;45.668;18.980;2023-03-13T16:56:41;384.90;1459.20
55054;DHT22;40954;45.668;18.980;2023-03-13T17:13:56;359.20;1587.20
55054;DHT22;40954;45.668;18.980;2023-03-13T17:16:28;359.00;1587.20
55054;DHT22;40954;45.668;18.980;2023-03-13T17:18:55;358.90;1587.20
55054;DHT22;40954;45.668;18.980;2023-03-13T17:21:26;358.80;1587.20
55054;DHT22;40954;45.668;18.980;2023-03-13T17:23:53;358.70;1612.80
55054;DHT22;40954;45.668;18.980;2023-03-13T17:26:25;358.70;1612.80
55054;DHT22;40954;45.668;18.980;2023-03-13T17:28:54;358.70;1587.20
55054;DHT22;40954;45.668;18.980;2023-03-13T17:31:21;358.70;1587.20
55054;DHT22;40954;45.668;18.980;2023-03-13T17:33:47;358.80;1561.60
55054;DHT22;40954;45.668;18.980;2023-03-13T17:38:39;358.70;1561.60
55054;DHT22;40954;45.668;18.980;2023-03-13T17:41:07;358.70;1561.60
55054;DHT22;40954;45.668;18.980;2023-03-13T17:43:33;358.70;1561.60
55054;DHT22;40954;45.668;18.980;2023-03-13T17:45:59;358.60;1561.60
55054;DHT22;40954;45.668;18.980;2023-03-13T17:48:25;358.60;1536.00
55054;DHT22;40954;45.668;18.980;2023-03-13T17:50:52;358.60;1536.00
55054;DHT22;40954;45.668;18.980;2023-03-13T17:53:17;358.50;1536.00
55054;DHT22;40954;45.668;18.980;2023-03-13T17:55:44;358.50;1536.00
55054;DHT22;40954;45.668;18.980;2023-03-13T17:58:10;358.50;1536.00
55054;DHT22;40954;45.668;18.980;2023-03-13T18:00:36;358.40;1510.40
55054;DHT22;40954;45.668;18.980;2023-03-13T18:03:02;358.40;1484.80
55054;DHT22;40954;45.668;18.980;2023-03-13T18:05:28;358.40;1484.80
55054;DHT22;40954;45.668;18.980;2023-03-13T18:07:55;358.40;1484.80
55054;DHT22;40954;45.668;18.980;2023-03-13T18:10:26;358.40;1484.80
55054;DHT22;40954;45.668;18.980;2023-03-13T18:12:52;358.40;1484.80
55054;DHT22;40954;45.668;18.980;2023-03-13T18:15:19;333.70;1484.80
55054;DHT22;40954;45.668;18.980;2023-03-13T18:17:45;333.70;1484.80
55054;DHT22;40954;45.668;18.980;2023-03-13T18:20:20;333.70;1459.20
55054;DHT22;40954;45.668;18.980;2023-03-13T18:22:47;333.60;1484.80
55054;DHT22;40954;45.668;18.980;2023-03-13T18:25:13;333.60;1484.80
55054;DHT22;40954;45.668;18.980;2023-03-13T18:30:15;333.70;1459.20
55054;DHT22;40954;45.668;18.980;2023-03-13T18:32:42;333.60;1459.20
55054;DHT22;40954;45.668;18.980;2023-03-13T18:35:08;333.50;1459.20
55054;DHT22;40954;45.668;18.980;2023-03-13T18:37:34;333.50;1433.60
55054;DHT22;40954;45.668;18.980;2023-03-13T18:39:59;333.50;1433.60
55054;DHT22;40954;45.668;18.980;2023-03-13T18:42:25;333.40;1433.60
55054;DHT22;40954;45.668;18.980;2023-03-13T18:44:52;333.40;1408.00
55054;DHT22;40954;45.668;18.980;2023-03-13T18:47:19;333.40;1408.00
55054;DHT22;40954;45.668;18.980;2023-03-13T18:49:46;333.40;1408.00
55054;DHT22;40954;45.668;18.980;2023-03-13T18:52:13;333.40;1408.00
55054;DHT22;40954;45.668;18.980;2023-03-13T18:54:39;333.30;1408.00
55054;DHT22;40954;45.668;18.980;2023-03-13T18:57:15;333.30;1408.00
55054;DHT22;40954;45.668;18.980;2023-03-13T18:59:42;333.30;1408.00
55054;DHT22;40954;45.668;18.980;2023-03-13T19:02:15;333.30;1408.00
55054;DHT22;40954;45.668;18.980;2023-03-13T19:04:42;333.30;1408.00
55054;DHT22;40954;45.668;18.980;2023-03-13T19:07:15;333.30;1408.00
55054;DHT22;40954;45.668;18.980;2023-03-13T19:09:43;333.20;1408.00
55054;DHT22;40954;45.668;18.980;2023-03-13T19:12:10;333.20;1408.00
55054;DHT22;40954;45.668;18.980;2023-03-13T19:14:36;333.10;1408.00
55054;DHT22;40954;45.668;18.980;2023-03-13T19:17:04;333.10;1408.00
55054;DHT22;40954;45.668;18.980;2023-03-13T19:19:31;333.10;1408.00
55054;DHT22;40954;45.668;18.980;2023-03-13T19:21:57;333.10;1433.60
55054;DHT22;40954;45.668;18.980;2023-03-13T19:24:23;333.10;1459.20
55054;DHT22;40954;45.668;18.980;2023-03-13T19:29:24;333.10;1433.60
55054;DHT22;40954;45.668;18.980;2023-03-13T19:31:50;333.00;1459.20
55054;DHT22;40954;45.668;18.980;2023-03-13T19:34:17;333.00;1459.20
55054;DHT22;40954;45.668;18.980;2023-03-13T19:36:45;332.90;1459.20
55054;DHT22;40954;45.668;18.980;2023-03-13T19:39:17;332.80;1459.20
55054;DHT22;40954;45.668;18.980;2023-03-13T19:41:43;332.80;1484.80
55054;DHT22;40954;45.668;18.980;2023-03-13T19:44:09;308.10;1459.20
55054;DHT22;40954;45.668;18.980;2023-03-13T19:46:35;308.10;1459.20
55054;DHT22;40954;45.668;18.980;2023-03-13T19:49:03;308.10;1459.20
55054;DHT22;40954;45.668;18.980;2023-03-13T19:51:30;308.00;1459.20
55054;DHT22;40954;45.668;18.980;2023-03-13T19:53:56;308.00;1484.80
55054;DHT22;40954;45.668;18.980;2023-03-13T19:56:24;308.00;1459.20
55054;DHT22;40954;45.668;18.980;2023-03-13T19:58:55;307.90;1459.20
55054;DHT22;40954;45.668;18.980;2023-03-13T20:01:21;307.90;1459.20
55054;DHT22;40954;45.668;18.980;2023-03-13T20:03:46;307.80;1459.20
55054;DHT22;40954;45.668;18.980;2023-03-13T20:06:20;307.80;1459.20
55054;DHT22;40954;45.668;18.980;2023-03-13T20:08:47;307.80;1459.20
55054;DHT22;40954;45.668;18.980;2023-03-13T20:11:14;307.80;1433.60
